sensor_id;sensor_type;location;lat;lon;timestamp;temperature;humidity
66726;HTU21D;53638;51.062;5.804;2022-08-11T00:01:10;23.07;60.09
66726;HTU21D;53638;51.062;5.804;2022-08-11T00:03:43;23.00;58.90
66726;HTU21D;53638;51.062;5.804;2022-08-11T00:06:11;22.94;59.10
66726;HTU21D;53638;51.062;5.804;2022-08-11T00:08:41;22.90;58.66
66726;HTU21D;53638;51.062;5.804;2022-08-11T00:11:09;22.87;58.21
66726;HTU21D;53638;51.062;5.804;2022-08-11T00:13:40;22.85;59.54
66726;HTU21D;53638;51.062;5.804;2022-08-11T00:16:19;22.78;58.35
66726;HTU21D;53638;51.062;5.804;2022-08-11T00:18:49;22.70;58.55
66726;HTU21D;53638;51.062;5.804;2022-08-11T00:21:17;22.66;58.92
66726;HTU21D;53638;51.062;5.804;2022-08-11T00:23:56;22.65;60.10
66726;HTU21D;53638;51.062;5.804;2022-08-11T00:26:24;22.60;60.44
66726;HTU21D;53638;51.062;5.804;2022-08-11T00:28:50;22.53;59.70
66726;HTU21D;53638;51.062;5.804;2022-08-11T00:31:25;22.49;59.41
66726;HTU21D;53638;51.062;5.804;2022-08-11T00:33:53;22.43;58.00
66726;HTU21D;53638;51.062;5.804;2022-08-11T00:36:27;22.37;59.89
66726;HTU21D;53638;51.062;5.804;2022-08-11T00:39:03;22.32;58.09
66726;HTU21D;53638;51.062;5.804;2022-08-11T00:49:33;22.17;61.28
66726;HTU21D;53638;51.062;5.804;2022-08-11T01:03:26;21.76;63.57
66726;HTU21D;53638;51.062;5.804;2022-08-11T01:06:37;21.68;65.18
66726;HTU21D;53638;51.062;5.804;2022-08-11T01:09:47;21.62;65.88
66726;HTU21D;53638;51.062;5.804;2022-08-11T01:15:13;21.54;64.63
66726;HTU21D;53638;51.062;5.804;2022-08-11T01:32:58;21.16;64.04
66726;HTU21D;53638;51.062;5.804;2022-08-11T01:41:53;21.05;64.51
66726;HTU21D;53638;51.062;5.804;2022-08-11T01:47:51;20.90;63.18
66726;HTU21D;53638;51.062;5.804;2022-08-11T01:50:56;20.89;62.40
66726;HTU21D;53638;51.062;5.804;2022-08-11T01:53:50;20.85;65.30
66726;HTU21D;53638;51.062;5.804;2022-08-11T01:59:13;20.78;63.87
66726;HTU21D;53638;51.062;5.804;2022-08-11T02:01:51;20.70;64.19
66726;HTU21D;53638;51.062;5.804;2022-08-11T02:13:35;20.49;64.05
66726;HTU21D;53638;51.062;5.804;2022-08-11T02:16:25;20.43;64.46
66726;HTU21D;53638;51.062;5.804;2022-08-11T02:19:04;20.36;64.95
66726;HTU21D;53638;51.062;5.804;2022-08-11T02:22:00;20.30;63.53
66726;HTU21D;53638;51.062;5.804;2022-08-11T02:30:08;20.22;67.91
66726;HTU21D;53638;51.062;5.804;2022-08-11T02:35:45;20.11;72.93
66726;HTU21D;53638;51.062;5.804;2022-08-11T02:38:16;20.01;72.90
66726;HTU21D;53638;51.062;5.804;2022-08-11T02:40:52;19.94;70.21
66726;HTU21D;53638;51.062;5.804;2022-08-11T02:43:56;19.91;71.05
66726;HTU21D;53638;51.062;5.804;2022-08-11T02:46:27;19.86;71.97
66726;HTU21D;53638;51.062;5.804;2022-08-11T02:49:17;19.83;71.02
66726;HTU21D;53638;51.062;5.804;2022-08-11T02:52:29;19.75;69.97
66726;HTU21D;53638;51.062;5.804;2022-08-11T02:58:13;19.60;70.77
66726;HTU21D;53638;51.062;5.804;2022-08-11T03:00:49;19.56;72.74
66726;HTU21D;53638;51.062;5.804;2022-08-11T03:03:29;19.55;72.29
66726;HTU21D;53638;51.062;5.804;2022-08-11T03:06:11;19.51;74.42
66726;HTU21D;53638;51.062;5.804;2022-08-11T03:09:13;19.48;74.96
66726;HTU21D;53638;51.062;5.804;2022-08-11T03:11:55;19.47;75.19
66726;HTU21D;53638;51.062;5.804;2022-08-11T03:14:58;19.40;75.40
66726;HTU21D;53638;51.062;5.804;2022-08-11T03:18:11;19.36;74.09
66726;HTU21D;53638;51.062;5.804;2022-08-11T03:21:01;19.23;73.38
66726;HTU21D;53638;51.062;5.804;2022-08-11T03:23:41;19.17;73.90
66726;HTU21D;53638;51.062;5.804;2022-08-11T03:31:48;19.08;74.73
66726;HTU21D;53638;51.062;5.804;2022-08-11T03:34:24;19.03;75.78
66726;HTU21D;53638;51.062;5.804;2022-08-11T03:37:04;19.01;76.37
66726;HTU21D;53638;51.062;5.804;2022-08-11T03:39:44;18.97;76.95
66726;HTU21D;53638;51.062;5.804;2022-08-11T03:45:31;18.89;75.50
66726;HTU21D;53638;51.062;5.804;2022-08-11T03:48:18;18.86;74.93
66726;HTU21D;53638;51.062;5.804;2022-08-11T03:50:56;18.85;75.70
66726;HTU21D;53638;51.062;5.804;2022-08-11T04:17:32;18.50;73.61
66726;HTU21D;53638;51.062;5.804;2022-08-11T04:28:54;18.37;81.14
66726;HTU21D;53638;51.062;5.804;2022-08-11T04:31:55;18.30;87.88
66726;HTU21D;53638;51.062;5.804;2022-08-11T04:37:42;18.29;92.21
66726;HTU21D;53638;51.062;5.804;2022-08-11T04:43:55;18.27;93.35
66726;HTU21D;53638;51.062;5.804;2022-08-11T04:46:21;18.24;94.17
66726;HTU21D;53638;51.062;5.804;2022-08-11T04:58:39;18.07;86.80
66726;HTU21D;53638;51.062;5.804;2022-08-11T05:10:47;18.24;89.25
66726;HTU21D;53638;51.062;5.804;2022-08-11T05:13:28;18.25;89.98
66726;HTU21D;53638;51.062;5.804;2022-08-11T05:16:18;18.21;89.92
66726;HTU21D;53638;51.062;5.804;2022-08-11T05:19:05;18.26;90.97
66726;HTU21D;53638;51.062;5.804;2022-08-11T05:21:53;18.30;90.12
66726;HTU21D;53638;51.062;5.804;2022-08-11T05:24:43;18.28;87.68
66726;HTU21D;53638;51.062;5.804;2022-08-11T05:27:37;18.30;87.25
66726;HTU21D;53638;51.062;5.804;2022-08-11T05:30:28;18.29;87.11
66726;HTU21D;53638;51.062;5.804;2022-08-11T05:33:24;18.35;87.40
66726;HTU21D;53638;51.062;5.804;2022-08-11T05:36:24;18.41;89.28
66726;HTU21D;53638;51.062;5.804;2022-08-11T05:38:58;18.47;88.92
66726;HTU21D;53638;51.062;5.804;2022-08-11T05:41:43;18.51;86.93
66726;HTU21D;53638;51.062;5.804;2022-08-11T05:44:30;18.57;85.86
66726;HTU21D;53638;51.062;5.804;2022-08-11T05:47:24;18.66;86.01
66726;HTU21D;53638;51.062;5.804;2022-08-11T05:50:12;18.70;84.50
66726;HTU21D;53638;51.062;5.804;2022-08-11T05:52:59;18.76;85.35
66726;HTU21D;53638;51.062;5.804;2022-08-11T05:55:45;18.81;85.21
66726;HTU21D;53638;51.062;5.804;2022-08-11T05:58:35;18.87;86.07
66726;HTU21D;53638;51.062;5.804;2022-08-11T06:01:02;18.93;86.18
66726;HTU21D;53638;51.062;5.804;2022-08-11T06:03:32;19.00;85.94
66726;HTU21D;53638;51.062;5.804;2022-08-11T06:06:21;19.03;85.08
66726;HTU21D;53638;51.062;5.804;2022-08-11T06:08:48;19.10;84.32
66726;HTU21D;53638;51.062;5.804;2022-08-11T06:11:15;19.16;83.98
66726;HTU21D;53638;51.062;5.804;2022-08-11T06:13:44;19.23;84.21
66726;HTU21D;53638;51.062;5.804;2022-08-11T06:16:13;19.29;83.49
66726;HTU21D;53638;51.062;5.804;2022-08-11T06:18:46;19.33;83.99
66726;HTU21D;53638;51.062;5.804;2022-08-11T06:21:13;19.39;83.02
66726;HTU21D;53638;51.062;5.804;2022-08-11T06:23:43;19.44;83.00
66726;HTU21D;53638;51.062;5.804;2022-08-11T06:26:11;19.53;82.45
66726;HTU21D;53638;51.062;5.804;2022-08-11T06:28:41;19.62;82.45
66726;HTU21D;53638;51.062;5.804;2022-08-11T06:33:55;19.77;81.68
66726;HTU21D;53638;51.062;5.804;2022-08-11T06:36:30;19.81;81.39
66726;HTU21D;53638;51.062;5.804;2022-08-11T06:41:55;20.03;82.16
66726;HTU21D;53638;51.062;5.804;2022-08-11T06:44:40;20.11;81.00
66726;HTU21D;53638;51.062;5.804;2022-08-11T06:47:11;20.20;80.93
66726;HTU21D;53638;51.062;5.804;2022-08-11T06:49:43;20.28;81.01
66726;HTU21D;53638;51.062;5.804;2022-08-11T06:52:47;20.39;80.49
66726;HTU21D;53638;51.062;5.804;2022-08-11T06:55:21;20.47;80.62
66726;HTU21D;53638;51.062;5.804;2022-08-11T06:58:16;20.57;80.53
66726;HTU21D;53638;51.062;5.804;2022-08-11T07:01:08;20.63;80.52
66726;HTU21D;53638;51.062;5.804;2022-08-11T07:03:42;20.70;80.81
66726;HTU21D;53638;51.062;5.804;2022-08-11T07:06:31;20.77;80.52
66726;HTU21D;53638;51.062;5.804;2022-08-11T07:09:20;20.89;79.99
66726;HTU21D;53638;51.062;5.804;2022-08-11T07:12:34;21.01;79.30
66726;HTU21D;53638;51.062;5.804;2022-08-11T07:15:29;21.09;79.45
66726;HTU21D;53638;51.062;5.804;2022-08-11T07:18:10;21.23;79.55
66726;HTU21D;53638;51.062;5.804;2022-08-11T07:21:08;21.32;79.14
66726;HTU21D;53638;51.062;5.804;2022-08-11T07:23:56;21.38;79.20
66726;HTU21D;53638;51.062;5.804;2022-08-11T07:26:47;21.50;79.19
66726;HTU21D;53638;51.062;5.804;2022-08-11T07:29:32;21.61;79.24
66726;HTU21D;53638;51.062;5.804;2022-08-11T07:32:11;21.68;78.82
66726;HTU21D;53638;51.062;5.804;2022-08-11T07:34:41;21.80;78.43
66726;HTU21D;53638;51.062;5.804;2022-08-11T07:37:13;21.91;78.24
66726;HTU21D;53638;51.062;5.804;2022-08-11T07:39:44;22.05;77.44
66726;HTU21D;53638;51.062;5.804;2022-08-11T07:42:14;22.14;76.98
66726;HTU21D;53638;51.062;5.804;2022-08-11T07:44:41;22.25;76.38
66726;HTU21D;53638;51.062;5.804;2022-08-11T07:47:28;22.37;75.36
66726;HTU21D;53638;51.062;5.804;2022-08-11T07:50:13;22.49;74.94
66726;HTU21D;53638;51.062;5.804;2022-08-11T07:52:59;22.60;74.51
66726;HTU21D;53638;51.062;5.804;2022-08-11T07:55:26;22.71;74.09
66726;HTU21D;53638;51.062;5.804;2022-08-11T07:57:57;22.86;73.80
66726;HTU21D;53638;51.062;5.804;2022-08-11T08:00:53;22.96;73.55
66726;HTU21D;53638;51.062;5.804;2022-08-11T08:03:39;23.11;72.86
66726;HTU21D;53638;51.062;5.804;2022-08-11T08:06:26;23.30;71.51
66726;HTU21D;53638;51.062;5.804;2022-08-11T08:09:13;23.42;70.90
66726;HTU21D;53638;51.062;5.804;2022-08-11T08:12:01;23.55;70.23
66726;HTU21D;53638;51.062;5.804;2022-08-11T08:14:47;23.65;69.65
66726;HTU21D;53638;51.062;5.804;2022-08-11T08:17:34;23.81;69.25
66726;HTU21D;53638;51.062;5.804;2022-08-11T08:20:18;23.91;69.00
66726;HTU21D;53638;51.062;5.804;2022-08-11T08:22:50;24.10;68.12
66726;HTU21D;53638;51.062;5.804;2022-08-11T08:25:24;24.20;67.24
66726;HTU21D;53638;51.062;5.804;2022-08-11T08:27:52;24.27;67.23
66726;HTU21D;53638;51.062;5.804;2022-08-11T08:30:18;24.43;66.69
66726;HTU21D;53638;51.062;5.804;2022-08-11T08:33:03;24.54;66.13
66726;HTU21D;53638;51.062;5.804;2022-08-11T08:35:29;24.58;66.01
66726;HTU21D;53638;51.062;5.804;2022-08-11T08:37:57;24.68;65.27
66726;HTU21D;53638;51.062;5.804;2022-08-11T08:40:25;24.77;65.35
66726;HTU21D;53638;51.062;5.804;2022-08-11T08:42:55;24.91;65.46
66726;HTU21D;53638;51.062;5.804;2022-08-11T08:45:23;25.04;64.85
66726;HTU21D;53638;51.062;5.804;2022-08-11T08:47:58;25.15;64.56
66726;HTU21D;53638;51.062;5.804;2022-08-11T08:50:28;25.21;64.11
66726;HTU21D;53638;51.062;5.804;2022-08-11T08:53:20;25.34;63.52
66726;HTU21D;53638;51.062;5.804;2022-08-11T08:55:48;25.47;63.03
66726;HTU21D;53638;51.062;5.804;2022-08-11T08:58:19;25.61;62.42
66726;HTU21D;53638;51.062;5.804;2022-08-11T09:00:50;25.73;61.73
66726;HTU21D;53638;51.062;5.804;2022-08-11T09:03:17;25.86;61.46
66726;HTU21D;53638;51.062;5.804;2022-08-11T09:05:46;25.93;61.12
66726;HTU21D;53638;51.062;5.804;2022-08-11T09:08:15;26.05;60.05
66726;HTU21D;53638;51.062;5.804;2022-08-11T09:10:45;26.11;59.49
66726;HTU21D;53638;51.062;5.804;2022-08-11T09:13:14;26.22;58.96
66726;HTU21D;53638;51.062;5.804;2022-08-11T09:15:40;26.32;58.45
66726;HTU21D;53638;51.062;5.804;2022-08-11T09:18:07;26.39;58.39
66726;HTU21D;53638;51.062;5.804;2022-08-11T09:20:37;26.55;57.22
66726;HTU21D;53638;51.062;5.804;2022-08-11T09:23:06;26.61;57.16
66726;HTU21D;53638;51.062;5.804;2022-08-11T09:25:56;26.69;57.74
66726;HTU21D;53638;51.062;5.804;2022-08-11T09:28:45;26.80;57.88
66726;HTU21D;53638;51.062;5.804;2022-08-11T09:31:13;26.90;57.87
66726;HTU21D;53638;51.062;5.804;2022-08-11T09:33:42;27.04;57.71
66726;HTU21D;53638;51.062;5.804;2022-08-11T09:36:11;27.13;57.72
66726;HTU21D;53638;51.062;5.804;2022-08-11T09:38:58;27.31;57.29
66726;HTU21D;53638;51.062;5.804;2022-08-11T09:41:44;27.47;56.54
66726;HTU21D;53638;51.062;5.804;2022-08-11T09:44:11;27.56;56.32
66726;HTU21D;53638;51.062;5.804;2022-08-11T09:46:58;27.61;56.08
66726;HTU21D;53638;51.062;5.804;2022-08-11T09:49:25;27.69;56.30
66726;HTU21D;53638;51.062;5.804;2022-08-11T09:51:53;27.81;55.87
66726;HTU21D;53638;51.062;5.804;2022-08-11T09:54:22;27.85;55.58
66726;HTU21D;53638;51.062;5.804;2022-08-11T09:56:52;27.96;54.40
66726;HTU21D;53638;51.062;5.804;2022-08-11T09:59:37;28.01;54.12
66726;HTU21D;53638;51.062;5.804;2022-08-11T10:02:06;28.18;53.09
66726;HTU21D;53638;51.062;5.804;2022-08-11T10:04:41;28.32;51.31
66726;HTU21D;53638;51.062;5.804;2022-08-11T10:07:08;28.44;50.91
66726;HTU21D;53638;51.062;5.804;2022-08-11T10:09:49;28.60;49.60
66726;HTU21D;53638;51.062;5.804;2022-08-11T10:12:22;28.72;49.18
66726;HTU21D;53638;51.062;5.804;2022-08-11T10:14:54;28.88;49.39
66726;HTU21D;53638;51.062;5.804;2022-08-11T10:18:03;29.01;49.28
66726;HTU21D;53638;51.062;5.804;2022-08-11T10:20:52;29.15;49.08
66726;HTU21D;53638;51.062;5.804;2022-08-11T10:23:21;29.33;47.14
66726;HTU21D;53638;51.062;5.804;2022-08-11T10:26:07;29.46;46.90
66726;HTU21D;53638;51.062;5.804;2022-08-11T10:28:53;29.68;45.31
66726;HTU21D;53638;51.062;5.804;2022-08-11T10:31:20;29.86;44.12
66726;HTU21D;53638;51.062;5.804;2022-08-11T10:34:08;29.97;44.03
66726;HTU21D;53638;51.062;5.804;2022-08-11T10:36:37;30.15;41.71
66726;HTU21D;53638;51.062;5.804;2022-08-11T10:39:12;30.34;40.57
66726;HTU21D;53638;51.062;5.804;2022-08-11T10:41:44;30.47;40.07
66726;HTU21D;53638;51.062;5.804;2022-08-11T10:44:35;30.60;39.68
66726;HTU21D;53638;51.062;5.804;2022-08-11T10:47:03;30.81;38.58
66726;HTU21D;53638;51.062;5.804;2022-08-11T10:49:49;31.15;38.70
66726;HTU21D;53638;51.062;5.804;2022-08-11T10:52:37;32.34;37.04
66726;HTU21D;53638;51.062;5.804;2022-08-11T10:55:24;34.70;31.92
66726;HTU21D;53638;51.062;5.804;2022-08-11T10:58:10;36.45;29.87
66726;HTU21D;53638;51.062;5.804;2022-08-11T11:00:55;38.15;27.57
66726;HTU21D;53638;51.062;5.804;2022-08-11T11:03:25;39.34;25.33
66726;HTU21D;53638;51.062;5.804;2022-08-11T11:06:00;40.16;23.46
66726;HTU21D;53638;51.062;5.804;2022-08-11T11:08:30;40.85;23.07
66726;HTU21D;53638;51.062;5.804;2022-08-11T11:11:17;41.56;21.72
66726;HTU21D;53638;51.062;5.804;2022-08-11T11:13:50;41.92;20.32
66726;HTU21D;53638;51.062;5.804;2022-08-11T11:16:37;42.36;19.79
66726;HTU21D;53638;51.062;5.804;2022-08-11T11:19:26;42.76;19.92
66726;HTU21D;53638;51.062;5.804;2022-08-11T11:21:55;43.05;19.24
66726;HTU21D;53638;51.062;5.804;2022-08-11T11:24:59;43.70;18.53
66726;HTU21D;53638;51.062;5.804;2022-08-11T11:27:39;44.28;17.38
66726;HTU21D;53638;51.062;5.804;2022-08-11T11:30:12;44.65;17.47
66726;HTU21D;53638;51.062;5.804;2022-08-11T11:33:01;45.02;17.09
66726;HTU21D;53638;51.062;5.804;2022-08-11T11:35:43;45.46;16.52
66726;HTU21D;53638;51.062;5.804;2022-08-11T11:38:11;45.62;16.51
66726;HTU21D;53638;51.062;5.804;2022-08-11T11:40:39;46.17;16.13
66726;HTU21D;53638;51.062;5.804;2022-08-11T11:43:06;46.38;15.19
66726;HTU21D;53638;51.062;5.804;2022-08-11T11:45:33;46.53;15.69
66726;HTU21D;53638;51.062;5.804;2022-08-11T11:48:00;46.59;15.50
66726;HTU21D;53638;51.062;5.804;2022-08-11T11:50:30;46.42;15.53
66726;HTU21D;53638;51.062;5.804;2022-08-11T11:52:58;46.93;14.91
66726;HTU21D;53638;51.062;5.804;2022-08-11T11:55:25;47.04;14.53
66726;HTU21D;53638;51.062;5.804;2022-08-11T11:57:53;47.04;14.57
66726;HTU21D;53638;51.062;5.804;2022-08-11T12:00:39;47.05;14.48
66726;HTU21D;53638;51.062;5.804;2022-08-11T12:03:25;47.03;14.73
66726;HTU21D;53638;51.062;5.804;2022-08-11T12:05:52;47.03;14.81
66726;HTU21D;53638;51.062;5.804;2022-08-11T12:08:20;47.19;14.76
66726;HTU21D;53638;51.062;5.804;2022-08-11T12:10:50;47.91;14.46
66726;HTU21D;53638;51.062;5.804;2022-08-11T12:13:39;48.28;14.07
66726;HTU21D;53638;51.062;5.804;2022-08-11T12:16:08;48.77;13.58
66726;HTU21D;53638;51.062;5.804;2022-08-11T12:18:35;48.40;13.80
66726;HTU21D;53638;51.062;5.804;2022-08-11T12:21:03;48.32;14.20
66726;HTU21D;53638;51.062;5.804;2022-08-11T12:23:31;48.96;13.55
66726;HTU21D;53638;51.062;5.804;2022-08-11T12:26:18;49.14;13.52
66726;HTU21D;53638;51.062;5.804;2022-08-11T12:29:09;48.80;13.84
66726;HTU21D;53638;51.062;5.804;2022-08-11T12:31:38;48.61;13.87
66726;HTU21D;53638;51.062;5.804;2022-08-11T12:34:08;48.59;14.12
66726;HTU21D;53638;51.062;5.804;2022-08-11T12:36:39;48.52;13.99
66726;HTU21D;53638;51.062;5.804;2022-08-11T12:39:08;48.56;13.52
66726;HTU21D;53638;51.062;5.804;2022-08-11T12:41:36;48.79;12.84
66726;HTU21D;53638;51.062;5.804;2022-08-11T12:44:26;49.13;12.40
66726;HTU21D;53638;51.062;5.804;2022-08-11T12:47:16;49.45;11.96
66726;HTU21D;53638;51.062;5.804;2022-08-11T12:49:47;49.76;11.97
66726;HTU21D;53638;51.062;5.804;2022-08-11T12:52:36;49.92;12.11
66726;HTU21D;53638;51.062;5.804;2022-08-11T12:55:12;49.95;12.14
66726;HTU21D;53638;51.062;5.804;2022-08-11T12:58:00;49.94;12.19
66726;HTU21D;53638;51.062;5.804;2022-08-11T13:00:45;50.39;11.89
66726;HTU21D;53638;51.062;5.804;2022-08-11T13:03:33;50.44;11.83
66726;HTU21D;53638;51.062;5.804;2022-08-11T13:06:22;50.46;12.21
66726;HTU21D;53638;51.062;5.804;2022-08-11T13:08:50;50.15;12.30
66726;HTU21D;53638;51.062;5.804;2022-08-11T13:11:17;49.79;12.22
66726;HTU21D;53638;51.062;5.804;2022-08-11T13:14:03;49.77;12.81
66726;HTU21D;53638;51.062;5.804;2022-08-11T13:16:32;49.98;12.74
66726;HTU21D;53638;51.062;5.804;2022-08-11T13:19:18;50.01;12.28
66726;HTU21D;53638;51.062;5.804;2022-08-11T13:21:48;50.17;12.13
66726;HTU21D;53638;51.062;5.804;2022-08-11T13:24:14;50.13;11.75
66726;HTU21D;53638;51.062;5.804;2022-08-11T13:26:44;49.82;12.28
66726;HTU21D;53638;51.062;5.804;2022-08-11T13:29:11;49.73;12.47
66726;HTU21D;53638;51.062;5.804;2022-08-11T13:31:39;49.42;12.78
66726;HTU21D;53638;51.062;5.804;2022-08-11T13:34:08;49.15;13.20
66726;HTU21D;53638;51.062;5.804;2022-08-11T13:36:35;48.98;13.42
66726;HTU21D;53638;51.062;5.804;2022-08-11T13:39:02;49.00;13.68
66726;HTU21D;53638;51.062;5.804;2022-08-11T13:41:29;49.53;12.96
66726;HTU21D;53638;51.062;5.804;2022-08-11T13:44:10;50.24;11.75
66726;HTU21D;53638;51.062;5.804;2022-08-11T13:46:38;50.03;12.62
66726;HTU21D;53638;51.062;5.804;2022-08-11T13:49:07;49.72;12.51
66726;HTU21D;53638;51.062;5.804;2022-08-11T13:51:36;49.62;12.36
66726;HTU21D;53638;51.062;5.804;2022-08-11T13:54:17;49.78;11.94
66726;HTU21D;53638;51.062;5.804;2022-08-11T13:56:47;50.13;11.75
66726;HTU21D;53638;51.062;5.804;2022-08-11T13:59:17;50.43;11.78
66726;HTU21D;53638;51.062;5.804;2022-08-11T14:01:52;50.64;11.37
66726;HTU21D;53638;51.062;5.804;2022-08-11T14:04:31;50.33;11.12
66726;HTU21D;53638;51.062;5.804;2022-08-11T14:07:04;50.44;11.10
66726;HTU21D;53638;51.062;5.804;2022-08-11T14:09:35;50.88;10.92
66726;HTU21D;53638;51.062;5.804;2022-08-11T14:12:13;50.58;11.21
66726;HTU21D;53638;51.062;5.804;2022-08-11T14:15:13;50.36;11.07
66726;HTU21D;53638;51.062;5.804;2022-08-11T14:17:42;50.01;11.47
66726;HTU21D;53638;51.062;5.804;2022-08-11T14:20:15;49.46;12.01
66726;HTU21D;53638;51.062;5.804;2022-08-11T14:22:42;49.45;12.23
66726;HTU21D;53638;51.062;5.804;2022-08-11T14:25:09;49.45;12.08
66726;HTU21D;53638;51.062;5.804;2022-08-11T14:27:37;49.32;12.39
66726;HTU21D;53638;51.062;5.804;2022-08-11T14:30:04;49.10;12.39
66726;HTU21D;53638;51.062;5.804;2022-08-11T14:32:30;49.26;12.06
66726;HTU21D;53638;51.062;5.804;2022-08-11T14:34:57;49.45;11.82
66726;HTU21D;53638;51.062;5.804;2022-08-11T14:37:26;49.46;12.19
66726;HTU21D;53638;51.062;5.804;2022-08-11T14:39:57;49.09;12.57
66726;HTU21D;53638;51.062;5.804;2022-08-11T14:42:25;49.02;12.33
66726;HTU21D;53638;51.062;5.804;2022-08-11T14:45:15;49.34;12.05
66726;HTU21D;53638;51.062;5.804;2022-08-11T14:48:04;49.61;11.89
66726;HTU21D;53638;51.062;5.804;2022-08-11T14:50:34;49.64;11.78
66726;HTU21D;53638;51.062;5.804;2022-08-11T14:53:06;49.58;11.89
66726;HTU21D;53638;51.062;5.804;2022-08-11T14:55:36;49.60;11.93
66726;HTU21D;53638;51.062;5.804;2022-08-11T14:58:24;49.57;11.88
66726;HTU21D;53638;51.062;5.804;2022-08-11T15:00:53;49.40;12.18
66726;HTU21D;53638;51.062;5.804;2022-08-11T15:03:23;48.94;12.63
66726;HTU21D;53638;51.062;5.804;2022-08-11T15:05:52;48.75;12.82
66726;HTU21D;53638;51.062;5.804;2022-08-11T15:08:20;48.45;12.82
66726;HTU21D;53638;51.062;5.804;2022-08-11T15:11:08;48.03;13.38
66726;HTU21D;53638;51.062;5.804;2022-08-11T15:13:57;47.95;13.54
66726;HTU21D;53638;51.062;5.804;2022-08-11T15:16:25;48.05;13.47
66726;HTU21D;53638;51.062;5.804;2022-08-11T15:19:12;48.10;13.39
66726;HTU21D;53638;51.062;5.804;2022-08-11T15:21:38;48.11;13.34
66726;HTU21D;53638;51.062;5.804;2022-08-11T15:24:23;48.25;13.30
66726;HTU21D;53638;51.062;5.804;2022-08-11T15:26:51;48.14;13.29
66726;HTU21D;53638;51.062;5.804;2022-08-11T15:29:38;47.96;13.65
66726;HTU21D;53638;51.062;5.804;2022-08-11T15:32:25;47.96;13.45
66726;HTU21D;53638;51.062;5.804;2022-08-11T15:35:13;47.97;13.23
66726;HTU21D;53638;51.062;5.804;2022-08-11T15:38:02;47.62;13.78
66726;HTU21D;53638;51.062;5.804;2022-08-11T15:40:34;47.67;13.83
66726;HTU21D;53638;51.062;5.804;2022-08-11T15:43:25;47.92;13.82
66726;HTU21D;53638;51.062;5.804;2022-08-11T15:46:16;47.97;13.95
66726;HTU21D;53638;51.062;5.804;2022-08-11T15:48:49;47.61;14.04
66726;HTU21D;53638;51.062;5.804;2022-08-11T15:51:17;47.39;14.21
66726;HTU21D;53638;51.062;5.804;2022-08-11T15:53:52;47.16;14.42
66726;HTU21D;53638;51.062;5.804;2022-08-11T15:56:23;47.31;14.23
66726;HTU21D;53638;51.062;5.804;2022-08-11T15:58:52;47.16;14.37
66726;HTU21D;53638;51.062;5.804;2022-08-11T16:01:41;46.90;14.72
66726;HTU21D;53638;51.062;5.804;2022-08-11T16:04:29;47.06;14.69
66726;HTU21D;53638;51.062;5.804;2022-08-11T16:06:58;47.36;14.45
66726;HTU21D;53638;51.062;5.804;2022-08-11T16:12:01;47.93;13.52
66726;HTU21D;53638;51.062;5.804;2022-08-11T16:14:32;47.64;13.78
66726;HTU21D;53638;51.062;5.804;2022-08-11T16:17:19;47.14;14.20
66726;HTU21D;53638;51.062;5.804;2022-08-11T16:19:48;47.18;14.02
66726;HTU21D;53638;51.062;5.804;2022-08-11T16:22:21;47.19;14.13
66726;HTU21D;53638;51.062;5.804;2022-08-11T16:24:55;47.19;14.36
66726;HTU21D;53638;51.062;5.804;2022-08-11T16:27:22;47.22;14.47
66726;HTU21D;53638;51.062;5.804;2022-08-11T16:29:50;46.95;14.94
66726;HTU21D;53638;51.062;5.804;2022-08-11T16:32:20;46.62;15.17
66726;HTU21D;53638;51.062;5.804;2022-08-11T16:34:56;46.31;15.48
66726;HTU21D;53638;51.062;5.804;2022-08-11T16:37:42;45.87;16.00
66726;HTU21D;53638;51.062;5.804;2022-08-11T16:40:30;45.59;16.00
66726;HTU21D;53638;51.062;5.804;2022-08-11T16:42:58;45.55;15.88
66726;HTU21D;53638;51.062;5.804;2022-08-11T16:45:44;45.65;15.65
66726;HTU21D;53638;51.062;5.804;2022-08-11T16:48:33;46.05;15.43
66726;HTU21D;53638;51.062;5.804;2022-08-11T16:51:00;45.95;15.65
66726;HTU21D;53638;51.062;5.804;2022-08-11T16:53:28;45.83;15.86
66726;HTU21D;53638;51.062;5.804;2022-08-11T16:55:58;45.63;15.84
66726;HTU21D;53638;51.062;5.804;2022-08-11T16:58:29;45.64;15.80
66726;HTU21D;53638;51.062;5.804;2022-08-11T17:01:18;45.35;15.85
66726;HTU21D;53638;51.062;5.804;2022-08-11T17:03:51;45.07;16.27
66726;HTU21D;53638;51.062;5.804;2022-08-11T17:06:42;44.77;16.62
66726;HTU21D;53638;51.062;5.804;2022-08-11T17:09:32;43.92;17.22
66726;HTU21D;53638;51.062;5.804;2022-08-11T17:12:25;43.64;17.34
66726;HTU21D;53638;51.062;5.804;2022-08-11T17:15:14;43.69;17.19
66726;HTU21D;53638;51.062;5.804;2022-08-11T17:18:02;43.67;17.13
66726;HTU21D;53638;51.062;5.804;2022-08-11T17:20:30;43.70;17.13
66726;HTU21D;53638;51.062;5.804;2022-08-11T17:22:59;43.70;17.12
66726;HTU21D;53638;51.062;5.804;2022-08-11T17:25:46;43.84;17.09
66726;HTU21D;53638;51.062;5.804;2022-08-11T17:28:16;43.80;17.24
66726;HTU21D;53638;51.062;5.804;2022-08-11T17:30:44;43.83;17.22
66726;HTU21D;53638;51.062;5.804;2022-08-11T17:33:30;43.99;17.11
66726;HTU21D;53638;51.062;5.804;2022-08-11T17:36:18;44.00;16.87
66726;HTU21D;53638;51.062;5.804;2022-08-11T17:38:46;43.56;17.02
66726;HTU21D;53638;51.062;5.804;2022-08-11T17:41:15;43.33;17.25
66726;HTU21D;53638;51.062;5.804;2022-08-11T17:44:02;43.17;17.64
66726;HTU21D;53638;51.062;5.804;2022-08-11T17:46:48;42.99;17.91
66726;HTU21D;53638;51.062;5.804;2022-08-11T17:49:38;43.06;17.98
66726;HTU21D;53638;51.062;5.804;2022-08-11T17:52:06;42.96;18.19
66726;HTU21D;53638;51.062;5.804;2022-08-11T17:54:52;42.87;18.04
66726;HTU21D;53638;51.062;5.804;2022-08-11T17:57:39;42.45;18.10
66726;HTU21D;53638;51.062;5.804;2022-08-11T18:00:24;41.96;18.54
66726;HTU21D;53638;51.062;5.804;2022-08-11T18:02:53;41.64;18.78
66726;HTU21D;53638;51.062;5.804;2022-08-11T18:05:41;41.34;19.03
66726;HTU21D;53638;51.062;5.804;2022-08-11T18:08:11;41.02;19.25
66726;HTU21D;53638;51.062;5.804;2022-08-11T18:10:59;40.78;19.48
66726;HTU21D;53638;51.062;5.804;2022-08-11T18:13:47;40.46;19.73
66726;HTU21D;53638;51.062;5.804;2022-08-11T18:16:32;40.38;19.92
66726;HTU21D;53638;51.062;5.804;2022-08-11T18:19:17;40.22;20.12
66726;HTU21D;53638;51.062;5.804;2022-08-11T18:22:07;39.99;20.45
66726;HTU21D;53638;51.062;5.804;2022-08-11T18:24:57;39.81;20.73
66726;HTU21D;53638;51.062;5.804;2022-08-11T18:27:46;39.62;20.98
66726;HTU21D;53638;51.062;5.804;2022-08-11T18:30:36;39.37;21.30
66726;HTU21D;53638;51.062;5.804;2022-08-11T18:33:24;38.99;21.60
66726;HTU21D;53638;51.062;5.804;2022-08-11T18:36:14;38.58;22.07
66726;HTU21D;53638;51.062;5.804;2022-08-11T18:39:02;38.28;22.41
66726;HTU21D;53638;51.062;5.804;2022-08-11T18:41:49;38.07;22.52
66726;HTU21D;53638;51.062;5.804;2022-08-11T18:44:37;37.85;22.73
66726;HTU21D;53638;51.062;5.804;2022-08-11T18:47:25;37.44;23.10
66726;HTU21D;53638;51.062;5.804;2022-08-11T18:50:11;37.03;23.67